createdAt,value
2023-06-04T00:02:16.572Z,66.47
2023-06-04T00:04:43.649Z,66.54
2023-06-04T00:07:12.949Z,67.60
2023-06-04T00:09:40.241Z,65.27
2023-06-04T00:12:07.928Z,66.66
2023-06-04T00:14:35.039Z,68.08
2023-06-04T00:17:01.911Z,66.18
2023-06-04T00:19:28.568Z,66.10
2023-06-04T00:21:55.716Z,67.80
2023-06-04T00:24:23.793Z,68.20
2023-06-04T00:26:50.831Z,68.32
2023-06-04T00:29:17.500Z,69.21
2023-06-04T00:31:44.228Z,67.12
2023-06-04T00:34:11.817Z,68.44
2023-06-04T00:36:41.216Z,69.44
2023-06-04T00:39:08.886Z,67.75
2023-06-04T00:41:35.462Z,67.54
2023-06-04T00:44:02.751Z,69.96
2023-06-04T00:58:18.518Z,73.58
2023-06-04T01:00:46.112Z,75.15
2023-06-04T01:03:18.331Z,72.72
2023-06-04T01:06:00.941Z,74.61
2023-06-04T01:08:28.400Z,76.97
2023-06-04T01:10:56.656Z,74.09
2023-06-04T01:13:23.905Z,73.78
2023-06-04T01:15:50.471Z,75.97
2023-06-04T01:18:28.935Z,74.35
2023-06-04T01:21:00.636Z,73.13
2023-06-04T01:23:34.749Z,73.91
2023-06-04T01:26:05.580Z,74.58
2023-06-04T01:28:35.199Z,77.73
2023-06-04T01:31:03.049Z,75.12
2023-06-04T01:33:30.066Z,77.86
2023-06-04T01:35:59.195Z,74.89
2023-06-04T01:38:26.071Z,76.49
2023-06-04T01:40:57.078Z,78.08
2023-06-04T01:43:24.153Z,75.92
2023-06-04T01:45:50.824Z,78.50
2023-06-04T01:48:17.685Z,77.80
2023-06-04T01:50:44.326Z,78.67
2023-06-04T01:53:11.661Z,77.29
2023-06-04T01:55:38.910Z,77.23
2023-06-04T01:58:06.012Z,77.20
2023-06-04T02:00:32.536Z,80.32
2023-06-04T02:03:00.532Z,80.75
2023-06-04T02:05:27.720Z,78.05
2023-06-04T02:07:54.398Z,78.42
2023-06-04T02:10:21.556Z,79.47
2023-06-04T02:13:05.977Z,78.82
2023-06-04T02:15:33.258Z,78.87
2023-06-04T02:18:17.425Z,80.89
2023-06-04T02:20:46.020Z,80.34
2023-06-04T02:23:14.275Z,79.39
2023-06-04T02:25:41.165Z,81.50
2023-06-04T02:28:09.070Z,80.47
2023-06-04T02:30:35.615Z,79.74
2023-06-04T02:33:02.335Z,82.76
2023-06-04T02:35:30.058Z,81.47
2023-06-04T02:38:00.267Z,81.00
2023-06-04T02:40:27.169Z,83.07
2023-06-04T02:42:54.317Z,82.77
2023-06-04T02:45:22.296Z,82.73
2023-06-04T02:47:49.004Z,82.63
2023-06-04T02:50:16.761Z,83.03
2023-06-04T02:52:45.304Z,82.50
2023-06-04T02:55:15.798Z,83.11
2023-06-04T02:57:44.145Z,83.36
2023-06-04T03:00:13.272Z,83.84
2023-06-04T03:02:45.088Z,84.73
2023-06-04T03:05:14.112Z,84.80
2023-06-04T03:07:44.373Z,84.18
2023-06-04T03:10:12.784Z,82.85
2023-06-04T03:12:40.816Z,82.71
2023-06-04T03:15:08.000Z,83.46
2023-06-04T03:17:34.604Z,85.55
2023-06-04T03:20:02.349Z,85.49
2023-06-04T03:22:29.330Z,85.63
2023-06-04T03:24:56.122Z,85.59
2023-06-04T03:27:23.207Z,85.43
2023-06-04T03:29:49.765Z,86.28
2023-06-04T03:32:17.126Z,85.17
2023-06-04T03:34:44.779Z,86.05
2023-06-04T03:37:11.417Z,85.58
2023-06-04T03:39:38.368Z,86.89
2023-06-04T03:42:05.859Z,87.28
2023-06-04T03:44:32.418Z,86.12
2023-06-04T03:46:59.259Z,87.11
2023-06-04T03:49:26.018Z,86.53
2023-06-04T03:51:53.028Z,86.25
2023-06-04T03:54:20.253Z,86.45
2023-06-04T03:56:47.826Z,86.51
2023-06-04T03:59:14.884Z,86.61
2023-06-04T04:01:42.702Z,86.38
2023-06-04T04:04:09.687Z,85.88
2023-06-04T04:06:36.436Z,86.22
2023-06-04T04:09:04.982Z,86.28
2023-06-04T04:11:31.682Z,86.88
2023-06-04T04:13:59.073Z,87.81
2023-06-04T04:16:26.429Z,87.89
2023-06-04T04:18:53.251Z,88.77
2023-06-04T04:21:19.896Z,89.09
2023-06-04T04:23:46.902Z,89.50
2023-06-04T04:26:18.050Z,89.04
2023-06-04T04:28:45.043Z,88.87
2023-06-04T04:31:11.886Z,89.74
2023-06-04T04:33:40.620Z,90.37
2023-06-04T04:36:13.699Z,90.92
2023-06-04T04:38:41.043Z,90.93
2023-06-04T04:41:08.633Z,89.52
2023-06-04T04:43:37.222Z,88.76
2023-06-04T04:46:04.241Z,87.76
2023-06-04T04:48:31.089Z,88.70
2023-06-04T04:50:58.398Z,90.06
2023-06-04T04:53:25.042Z,91.22
2023-06-04T04:55:51.619Z,91.38
2023-06-04T04:58:18.754Z,90.53
2023-06-04T05:00:45.189Z,91.55
2023-06-04T05:03:12.014Z,91.34
2023-06-04T05:05:38.627Z,91.73
2023-06-04T05:08:05.638Z,91.21
2023-06-04T05:10:32.420Z,90.37
2023-06-04T05:13:00.789Z,91.18
2023-06-04T05:15:27.791Z,91.63
2023-06-04T05:17:54.632Z,91.91
2023-06-04T05:20:21.962Z,92.60
2023-06-04T05:22:48.653Z,91.74
2023-06-04T05:25:15.827Z,92.11
2023-06-04T05:27:42.704Z,92.44
2023-06-04T05:30:10.258Z,92.89
2023-06-04T05:32:41.533Z,91.67
2023-06-04T05:35:09.077Z,91.40
2023-06-04T05:37:39.021Z,89.03
2023-06-04T05:40:07.194Z,87.73
2023-06-04T05:42:34.184Z,87.53
2023-06-04T05:45:00.930Z,86.91
2023-06-04T05:47:30.097Z,85.38
2023-06-04T05:49:57.195Z,88.31
2023-06-04T05:52:24.203Z,86.61
2023-06-04T05:54:51.029Z,87.78
2023-06-04T05:57:17.684Z,86.22
2023-06-04T05:59:44.225Z,85.80
2023-06-04T06:02:10.798Z,86.30
2023-06-04T06:04:37.564Z,85.99
2023-06-04T06:07:04.889Z,85.80
2023-06-04T06:09:31.473Z,85.05
2023-06-04T06:11:59.197Z,82.70
2023-06-04T06:14:26.439Z,83.27
2023-06-04T06:16:55.019Z,83.52
2023-06-04T06:19:24.134Z,84.26
2023-06-04T06:21:50.612Z,84.59
2023-06-04T06:24:17.711Z,84.35
2023-06-04T06:26:45.358Z,83.00
2023-06-04T06:29:11.963Z,78.72
2023-06-04T06:31:39.004Z,79.06
2023-06-04T06:34:06.494Z,79.98
2023-06-04T06:36:33.853Z,82.08
2023-06-04T06:39:00.678Z,80.28
2023-06-04T06:41:27.907Z,80.61
2023-06-04T06:43:54.434Z,82.69
2023-06-04T06:46:21.228Z,82.69
2023-06-04T06:48:49.174Z,81.33
2023-06-04T06:51:16.074Z,80.36
2023-06-04T06:53:43.108Z,79.87
2023-06-04T06:56:09.840Z,77.10
2023-06-04T06:58:36.606Z,76.37
2023-06-04T07:01:03.084Z,75.06
2023-06-04T07:03:29.854Z,76.05
2023-06-04T07:05:56.432Z,79.65
2023-06-04T07:08:23.390Z,79.00
2023-06-04T07:10:50.077Z,77.62
2023-06-04T07:13:17.229Z,78.85
2023-06-04T07:15:44.107Z,77.37
2023-06-04T07:18:10.972Z,78.37
2023-06-04T07:20:37.571Z,76.15
2023-06-04T07:23:04.593Z,71.84
2023-06-04T07:25:31.644Z,67.18
2023-06-04T07:28:04.849Z,65.90
2023-06-04T07:30:35.214Z,66.10
2023-06-04T07:33:01.857Z,68.88
2023-06-04T07:35:28.680Z,69.09
2023-06-04T07:37:55.755Z,64.64
2023-06-04T07:40:22.663Z,72.09
2023-06-04T07:42:49.530Z,66.49
2023-06-04T07:45:16.686Z,65.08
2023-06-04T07:47:44.458Z,69.38
2023-06-04T07:50:11.641Z,65.05
2023-06-04T07:52:38.136Z,63.85
2023-06-04T07:55:06.047Z,63.06
2023-06-04T07:57:33.144Z,65.87
2023-06-04T08:00:00.381Z,63.53
2023-06-04T08:02:27.669Z,63.15
2023-06-04T08:04:54.541Z,62.02
2023-06-04T08:07:21.010Z,63.28
2023-06-04T08:09:47.576Z,62.72
2023-06-04T08:12:14.483Z,62.39
2023-06-04T08:14:41.162Z,62.31
2023-06-04T08:17:07.793Z,59.23
2023-06-04T08:19:34.406Z,56.84
2023-06-04T08:22:01.288Z,55.72
2023-06-04T08:24:27.735Z,56.21
2023-06-04T08:26:54.227Z,58.18
2023-06-04T08:29:20.735Z,56.25
2023-06-04T08:31:47.676Z,58.05
2023-06-04T08:34:15.727Z,55.16
2023-06-04T08:36:42.414Z,53.69
2023-06-04T08:39:09.186Z,55.94
2023-06-04T08:41:44.278Z,55.07
2023-06-04T08:44:11.745Z,54.88
2023-06-04T08:46:41.950Z,54.76
2023-06-04T08:49:09.831Z,54.76
2023-06-04T08:51:41.744Z,58.73
2023-06-04T08:54:10.097Z,55.70
2023-06-04T08:56:37.229Z,53.51
2023-06-04T08:59:07.115Z,56.85
2023-06-04T09:01:35.373Z,57.01
2023-06-04T09:04:06.298Z,58.17
2023-06-04T09:06:34.244Z,51.88
2023-06-04T09:09:08.345Z,51.77
2023-06-04T09:11:38.675Z,53.72
2023-06-04T09:14:09.438Z,47.62
2023-06-04T09:16:45.859Z,51.23
2023-06-04T09:19:13.253Z,50.18
2023-06-04T09:22:00.264Z,47.87
2023-06-04T09:24:41.435Z,47.59
2023-06-04T09:27:15.556Z,45.97
2023-06-04T09:29:53.316Z,46.34
2023-06-04T09:32:31.627Z,45.46
2023-06-04T09:35:13.774Z,44.53
2023-06-04T09:37:41.626Z,42.58
2023-06-04T09:40:09.672Z,43.59
2023-06-04T09:42:47.506Z,44.34
2023-06-04T09:45:14.008Z,42.68
2023-06-04T09:47:44.944Z,41.29
2023-06-04T09:50:12.713Z,39.18
2023-06-04T09:52:40.978Z,40.40
2023-06-04T09:55:21.197Z,39.10
2023-06-04T09:57:49.683Z,41.94
2023-06-04T10:00:23.998Z,37.02
2023-06-04T10:02:57.693Z,33.07
2023-06-04T10:05:27.452Z,31.94
2023-06-04T10:07:58.087Z,34.39
2023-06-04T10:10:27.634Z,34.72
2023-06-04T10:13:02.402Z,32.08
2023-06-04T10:15:30.075Z,32.01
2023-06-04T10:17:57.966Z,33.20
2023-06-04T10:20:25.275Z,30.70
2023-06-04T10:22:52.489Z,28.85
2023-06-04T10:25:21.412Z,25.17
2023-06-04T10:27:51.512Z,23.02
2023-06-04T10:30:18.537Z,22.29
2023-06-04T10:32:46.042Z,21.22
2023-06-04T10:35:13.098Z,20.57
2023-06-04T10:37:40.395Z,19.81
2023-06-04T10:40:07.900Z,19.67
2023-06-04T10:42:40.489Z,20.06
2023-06-04T10:45:08.918Z,20.83
2023-06-04T10:47:38.608Z,21.50
2023-06-04T10:50:12.688Z,21.10
2023-06-04T10:52:52.388Z,20.87
2023-06-04T10:55:19.937Z,20.22
2023-06-04T10:58:04.893Z,22.37
2023-06-04T11:00:41.596Z,23.09
2023-06-04T11:03:10.711Z,23.81
2023-06-04T11:05:48.398Z,24.29
2023-06-04T11:08:27.057Z,23.37
2023-06-04T11:10:53.635Z,23.34
2023-06-04T11:13:25.869Z,24.08
2023-06-04T11:15:52.715Z,25.52
2023-06-04T11:18:21.709Z,23.97
2023-06-04T11:21:00.495Z,24.12
2023-06-04T11:23:27.260Z,22.96
2023-06-04T11:25:54.209Z,24.72
2023-06-04T11:28:22.856Z,23.64
2023-06-04T11:31:04.210Z,24.66
2023-06-04T11:33:31.294Z,27.20
2023-06-04T11:35:57.804Z,24.37
2023-06-04T11:38:25.160Z,24.46
2023-06-04T11:41:03.146Z,23.99
2023-06-04T11:43:30.299Z,27.74
2023-06-04T11:45:57.456Z,24.86
2023-06-04T11:48:24.551Z,23.24
2023-06-04T11:50:51.491Z,24.81
2023-06-04T11:53:18.471Z,22.01
2023-06-04T11:55:45.564Z,23.11
2023-06-04T11:58:12.573Z,22.35
2023-06-04T12:00:40.294Z,23.12
2023-06-04T12:03:07.544Z,23.48
2023-06-04T12:05:35.316Z,23.28
2023-06-04T12:08:10.917Z,24.58
2023-06-04T12:10:42.281Z,24.00
2023-06-04T12:13:09.527Z,24.35
2023-06-04T12:15:36.711Z,27.67
2023-06-04T12:18:06.506Z,23.32
2023-06-04T12:20:35.574Z,24.30
2023-06-04T12:23:02.342Z,24.79
2023-06-04T12:25:31.081Z,24.09
2023-06-04T12:27:57.955Z,23.67
2023-06-04T12:30:36.656Z,24.64
2023-06-04T12:33:03.631Z,24.73
2023-06-04T12:35:30.428Z,26.78
2023-06-04T12:37:57.280Z,24.59
2023-06-04T12:40:23.789Z,24.06
2023-06-04T12:42:53.311Z,25.14
2023-06-04T12:45:19.975Z,24.63
2023-06-04T12:47:48.466Z,23.47
2023-06-04T12:50:16.267Z,23.44
2023-06-04T12:52:43.110Z,24.46
2023-06-04T12:55:10.331Z,24.46
2023-06-04T12:57:37.195Z,25.24
2023-06-04T13:00:05.706Z,23.04
2023-06-04T13:02:32.842Z,22.11
2023-06-04T13:04:59.806Z,22.62
2023-06-04T13:07:28.305Z,24.85
2023-06-04T13:09:55.186Z,23.93
2023-06-04T13:12:21.945Z,23.02
2023-06-04T13:14:48.605Z,23.66
2023-06-04T13:17:22.405Z,22.60
2023-06-04T13:19:50.566Z,22.33
2023-06-04T13:22:17.209Z,23.27
2023-06-04T13:24:43.892Z,21.20
2023-06-04T13:27:10.657Z,22.82
2023-06-04T13:29:37.452Z,23.25
2023-06-04T13:32:04.887Z,23.58
2023-06-04T13:34:33.171Z,23.91
2023-06-04T13:37:00.111Z,24.56
2023-06-04T13:39:27.109Z,25.79
2023-06-04T13:41:53.656Z,22.96
2023-06-04T13:44:21.384Z,24.81
2023-06-04T13:46:47.926Z,23.52
2023-06-04T13:49:14.436Z,23.64
2023-06-04T13:51:41.613Z,24.48
2023-06-04T13:54:09.738Z,22.87
2023-06-04T13:56:37.549Z,22.63
2023-06-04T13:59:04.140Z,23.33
2023-06-04T14:01:30.961Z,21.85
2023-06-04T14:03:59.630Z,23.00
2023-06-04T14:06:26.915Z,21.77
2023-06-04T14:08:53.676Z,23.65
2023-06-04T14:11:20.472Z,21.87
2023-06-04T14:13:47.324Z,21.71
2023-06-04T14:16:14.847Z,22.07
2023-06-04T14:18:41.523Z,21.97
2023-06-04T14:21:08.714Z,23.31
2023-06-04T14:23:36.333Z,22.52
2023-06-04T14:26:03.949Z,24.01
2023-06-04T14:28:31.336Z,23.10
2023-06-04T14:30:59.553Z,21.81
2023-06-04T14:33:26.373Z,21.73
2023-06-04T14:35:53.112Z,21.09
2023-06-04T14:38:20.098Z,20.43
2023-06-04T14:40:46.685Z,22.37
2023-06-04T14:43:14.009Z,21.66
2023-06-04T14:45:41.569Z,20.81
2023-06-04T14:48:15.309Z,21.62
2023-06-04T14:50:44.085Z,22.53
2023-06-04T14:53:12.672Z,21.08
2023-06-04T14:55:39.888Z,22.57
2023-06-04T14:58:06.770Z,21.73
2023-06-04T15:00:34.012Z,22.72
2023-06-04T15:03:03.146Z,22.65
2023-06-04T15:05:30.148Z,21.81
2023-06-04T15:07:56.498Z,23.39
2023-06-04T15:10:23.004Z,23.09
2023-06-04T15:12:49.945Z,20.96
2023-06-04T15:15:16.585Z,21.91
2023-06-04T15:17:45.502Z,21.25
2023-06-04T15:20:13.698Z,21.33
2023-06-04T15:22:41.067Z,21.89
2023-06-04T15:25:07.928Z,22.54
2023-06-04T15:27:35.434Z,22.59
2023-06-04T15:30:02.681Z,21.67
2023-06-04T15:32:30.222Z,23.56
2023-06-04T15:34:58.849Z,22.43
2023-06-04T15:37:25.339Z,22.90
2023-06-04T15:39:51.829Z,22.10
2023-06-04T15:42:18.303Z,22.34
2023-06-04T15:44:45.411Z,21.89
2023-06-04T15:47:11.821Z,21.74
2023-06-04T15:49:38.860Z,22.27
2023-06-04T15:52:05.546Z,21.82
2023-06-04T15:54:45.280Z,22.08
2023-06-04T15:57:13.862Z,22.50
2023-06-04T15:59:42.651Z,22.46
2023-06-04T16:02:12.234Z,22.43
2023-06-04T16:04:39.186Z,21.70
2023-06-04T16:07:06.222Z,23.24
2023-06-04T16:09:32.969Z,22.25
2023-06-04T16:12:00.386Z,22.39
2023-06-04T16:14:27.225Z,22.50
2023-06-04T16:16:54.454Z,22.79
2023-06-04T16:19:21.038Z,23.57
2023-06-04T16:21:47.550Z,22.76
2023-06-04T16:24:14.237Z,23.77
2023-06-04T16:26:40.895Z,23.58
2023-06-04T16:29:07.805Z,23.14
2023-06-04T16:31:34.339Z,21.82
2023-06-04T16:34:01.417Z,22.42
2023-06-04T16:36:28.354Z,23.72
2023-06-04T16:38:55.157Z,22.75
2023-06-04T16:41:22.841Z,22.55
2023-06-04T16:43:49.609Z,21.26
2023-06-04T16:46:16.683Z,21.69
2023-06-04T16:48:43.805Z,22.13
2023-06-04T16:51:11.716Z,22.25
2023-06-04T16:53:38.445Z,22.30
2023-06-04T16:56:05.715Z,23.94
2023-06-04T16:58:35.569Z,23.79
2023-06-04T17:01:03.533Z,22.52
2023-06-04T17:03:30.357Z,22.69
2023-06-04T17:05:56.813Z,23.72
2023-06-04T17:08:23.667Z,23.42
2023-06-04T17:10:50.749Z,24.59
2023-06-04T17:13:18.128Z,24.01
2023-06-04T17:15:44.908Z,23.17
2023-06-04T17:18:12.479Z,23.97
2023-06-04T17:20:39.636Z,25.71
2023-06-04T17:23:25.006Z,24.29
2023-06-04T17:25:52.876Z,24.38
2023-06-04T17:28:19.843Z,26.40
2023-06-04T17:30:46.803Z,24.49
2023-06-04T17:33:14.279Z,26.24
2023-06-04T17:35:40.954Z,25.36
2023-06-04T17:38:07.766Z,27.07
2023-06-04T17:40:34.704Z,25.59
2023-06-04T17:43:02.014Z,27.29
2023-06-04T17:45:28.733Z,27.46
2023-06-04T17:47:56.805Z,27.35
2023-06-04T17:50:23.638Z,26.21
2023-06-04T17:52:50.868Z,27.41
2023-06-04T17:55:18.124Z,25.80
2023-06-04T17:57:44.545Z,25.20
2023-06-04T18:00:11.779Z,26.21
2023-06-04T18:02:38.714Z,26.53
2023-06-04T18:05:05.891Z,28.69
2023-06-04T18:07:32.616Z,28.00
2023-06-04T18:09:59.730Z,28.53
2023-06-04T18:12:26.279Z,27.65
2023-06-04T18:14:52.654Z,29.41
2023-06-04T18:17:19.204Z,29.56
2023-06-04T18:19:46.033Z,28.65
2023-06-04T18:22:12.539Z,27.72
2023-06-04T18:24:39.172Z,30.23
2023-06-04T18:27:06.720Z,34.36
2023-06-04T18:29:34.313Z,33.15
2023-06-04T18:32:01.604Z,34.00
2023-06-04T18:34:29.435Z,35.08
2023-06-04T18:36:57.642Z,36.20
2023-06-04T18:39:25.437Z,36.93
2023-06-04T18:41:55.209Z,37.02
2023-06-04T18:44:22.436Z,37.31
2023-06-04T18:46:50.087Z,38.92
2023-06-04T18:49:18.037Z,37.15
2023-06-04T18:51:44.455Z,38.69
2023-06-04T18:54:11.145Z,39.41
2023-06-04T18:56:37.726Z,39.72
2023-06-04T18:59:04.382Z,39.92
2023-06-04T19:01:31.680Z,40.92
2023-06-04T19:03:58.228Z,41.21
2023-06-04T19:06:25.393Z,41.32
2023-06-04T19:08:51.985Z,39.75
2023-06-04T19:11:18.766Z,41.85
2023-06-04T19:13:45.226Z,40.14
2023-06-04T19:16:14.865Z,42.19
2023-06-04T19:18:41.916Z,42.43
2023-06-04T19:21:08.614Z,44.29
2023-06-04T19:23:35.594Z,44.64
2023-06-04T19:26:02.709Z,46.68
2023-06-04T19:28:29.182Z,46.29
2023-06-04T19:30:56.056Z,47.19
2023-06-04T19:33:22.986Z,47.09
2023-06-04T19:35:49.794Z,47.21
2023-06-04T19:38:16.484Z,49.26
2023-06-04T19:40:43.400Z,50.20
2023-06-04T19:43:10.847Z,49.31
2023-06-04T19:45:38.107Z,51.23
2023-06-04T19:48:04.896Z,50.80
2023-06-04T19:50:31.723Z,51.77
2023-06-04T19:52:58.943Z,51.55
2023-06-04T19:55:25.429Z,51.02
2023-06-04T19:57:53.378Z,52.83
2023-06-04T20:00:19.838Z,54.28
2023-06-04T20:02:46.989Z,52.03
2023-06-04T20:05:16.641Z,54.67
2023-06-04T20:07:44.230Z,53.59
2023-06-04T20:10:11.360Z,53.54
2023-06-04T20:12:38.473Z,54.57
2023-06-04T20:15:05.825Z,53.64
2023-06-04T20:17:32.348Z,54.31
2023-06-04T20:19:59.228Z,53.80
2023-06-04T20:22:26.136Z,57.89
2023-06-04T20:24:52.910Z,60.55
2023-06-04T20:27:19.727Z,58.71
2023-06-04T20:29:46.989Z,58.59
2023-06-04T20:32:13.372Z,59.76
2023-06-04T20:34:40.601Z,61.88
2023-06-04T20:37:07.336Z,62.44
2023-06-04T20:39:38.333Z,61.04
2023-06-04T20:42:05.863Z,61.17
2023-06-04T20:44:33.162Z,60.23
2023-06-04T20:46:59.927Z,60.29
2023-06-04T20:49:26.627Z,60.90
2023-06-04T20:51:53.894Z,62.00
2023-06-04T20:54:20.507Z,62.72
2023-06-04T20:56:48.167Z,62.60
2023-06-04T20:59:15.928Z,62.44
2023-06-04T21:01:42.665Z,63.12
2023-06-04T21:04:11.593Z,63.34
2023-06-04T21:06:38.627Z,63.57
2023-06-04T21:09:07.452Z,63.51
2023-06-04T21:11:34.164Z,64.98
2023-06-04T21:14:00.647Z,64.70
2023-06-04T21:16:27.301Z,66.63
2023-06-04T21:18:54.278Z,64.03
2023-06-04T21:21:21.527Z,63.59
2023-06-04T21:23:48.523Z,64.29
2023-06-04T21:26:15.511Z,66.02
2023-06-04T21:28:42.114Z,66.90
2023-06-04T21:31:09.449Z,68.02
2023-06-04T21:33:36.428Z,67.63
2023-06-04T21:36:03.787Z,67.32
2023-06-04T21:38:30.337Z,66.38
2023-06-04T21:40:57.216Z,68.29
2023-06-04T21:43:24.365Z,67.96
2023-06-04T21:45:51.564Z,65.50
2023-06-04T21:48:18.960Z,65.11
2023-06-04T21:50:45.864Z,66.80
2023-06-04T21:53:14.482Z,68.75
2023-06-04T21:55:41.580Z,69.69
2023-06-04T21:58:09.120Z,70.23
2023-06-04T22:00:35.837Z,70.62
2023-06-04T22:03:02.787Z,70.22
2023-06-04T22:05:30.018Z,70.23
2023-06-04T22:07:56.830Z,69.99
2023-06-04T22:10:23.728Z,71.66
2023-06-04T22:12:50.657Z,71.40
2023-06-04T22:15:17.247Z,69.92
2023-06-04T22:17:43.946Z,70.81
2023-06-04T22:20:10.896Z,69.28
2023-06-04T22:22:37.996Z,72.29
2023-06-04T22:25:04.766Z,71.08
2023-06-04T22:27:31.502Z,69.15
2023-06-04T22:29:58.384Z,69.34
2023-06-04T22:32:24.847Z,68.64
2023-06-04T22:34:51.319Z,70.24
2023-06-04T22:37:17.809Z,70.20
2023-06-04T22:39:45.374Z,69.54
2023-06-04T22:42:12.480Z,69.28
2023-06-04T22:44:39.895Z,69.71
2023-06-04T22:47:06.636Z,69.66
2023-06-04T22:49:33.196Z,69.15
2023-06-04T22:52:00.161Z,70.81
2023-06-04T22:54:27.190Z,69.12
2023-06-04T22:56:53.694Z,69.28
2023-06-04T22:59:20.306Z,70.26
2023-06-04T23:01:47.090Z,70.18
2023-06-04T23:04:13.760Z,70.34
2023-06-04T23:06:40.221Z,70.78
2023-06-04T23:09:06.900Z,70.74
2023-06-04T23:11:34.147Z,71.94
2023-06-04T23:14:00.879Z,71.44
2023-06-04T23:16:27.370Z,72.26
2023-06-04T23:18:54.963Z,71.95
2023-06-04T23:21:21.658Z,70.98
2023-06-04T23:23:48.943Z,71.04
2023-06-04T23:26:16.202Z,69.78
2023-06-04T23:28:42.888Z,69.09
2023-06-04T23:31:09.539Z,69.05
2023-06-04T23:33:36.519Z,69.14
2023-06-04T23:36:03.153Z,66.98
2023-06-04T23:38:29.700Z,67.87
2023-06-04T23:40:56.136Z,70.35
2023-06-04T23:43:22.883Z,71.34
2023-06-04T23:45:50.927Z,71.63
2023-06-04T23:48:18.099Z,71.55
2023-06-04T23:50:44.682Z,70.14
2023-06-04T23:53:11.261Z,69.84
2023-06-04T23:55:39.704Z,69.45
2023-06-04T23:58:06.818Z,67.80
